sensor_id;sensor_type;location;lat;lon;timestamp;temperature;humidity
33645;DHT22;19986;48.190;16.366;2023-10-09T00:01:07;15.90;99.90
33645;DHT22;19986;48.190;16.366;2023-10-09T00:03:42;15.80;99.90
33645;DHT22;19986;48.190;16.366;2023-10-09T00:06:09;15.70;99.90
33645;DHT22;19986;48.190;16.366;2023-10-09T00:08:39;15.70;99.90
33645;DHT22;19986;48.190;16.366;2023-10-09T00:11:10;15.70;99.90
33645;DHT22;19986;48.190;16.366;2023-10-09T00:13:45;15.70;99.90
33645;DHT22;19986;48.190;16.366;2023-10-09T00:16:22;15.60;99.90
33645;DHT22;19986;48.190;16.366;2023-10-09T00:19:04;15.50;99.90
33645;DHT22;19986;48.190;16.366;2023-10-09T00:21:43;15.50;99.90
33645;DHT22;19986;48.190;16.366;2023-10-09T00:24:09;15.50;99.90
33645;DHT22;19986;48.190;16.366;2023-10-09T00:26:40;15.40;99.90
33645;DHT22;19986;48.190;16.366;2023-10-09T00:29:14;15.40;99.90
33645;DHT22;19986;48.190;16.366;2023-10-09T00:31:53;15.40;99.90
33645;DHT22;19986;48.190;16.366;2023-10-09T00:34:29;15.40;99.90
33645;DHT22;19986;48.190;16.366;2023-10-09T00:36:55;15.50;99.90
33645;DHT22;19986;48.190;16.366;2023-10-09T00:39:23;15.50;99.90
33645;DHT22;19986;48.190;16.366;2023-10-09T00:42:07;15.60;99.90
33645;DHT22;19986;48.190;16.366;2023-10-09T00:44:33;15.70;99.90
33645;DHT22;19986;48.190;16.366;2023-10-09T00:47:10;15.60;99.90
33645;DHT22;19986;48.190;16.366;2023-10-09T00:52:28;15.60;99.90
33645;DHT22;19986;48.190;16.366;2023-10-09T00:55:04;15.60;99.90
33645;DHT22;19986;48.190;16.366;2023-10-09T00:57:44;15.60;99.90
33645;DHT22;19986;48.190;16.366;2023-10-09T01:00:17;15.60;99.90
33645;DHT22;19986;48.190;16.366;2023-10-09T01:03:19;15.60;99.90
33645;DHT22;19986;48.190;16.366;2023-10-09T01:05:48;15.60;99.90
33645;DHT22;19986;48.190;16.366;2023-10-09T01:08:39;15.60;99.90
33645;DHT22;19986;48.190;16.366;2023-10-09T01:11:06;15.70;99.90
33645;DHT22;19986;48.190;16.366;2023-10-09T01:13:39;15.70;99.90
33645;DHT22;19986;48.190;16.366;2023-10-09T01:16:08;15.70;99.90
33645;DHT22;19986;48.190;16.366;2023-10-09T01:18:46;15.70;99.90
33645;DHT22;19986;48.190;16.366;2023-10-09T01:21:19;15.60;99.90
33645;DHT22;19986;48.190;16.366;2023-10-09T01:23:57;15.60;99.90
33645;DHT22;19986;48.190;16.366;2023-10-09T01:26:29;15.50;99.90
33645;DHT22;19986;48.190;16.366;2023-10-09T01:29:00;15.50;99.90
33645;DHT22;19986;48.190;16.366;2023-10-09T01:31:26;15.50;99.90
33645;DHT22;19986;48.190;16.366;2023-10-09T01:33:54;15.40;99.90
33645;DHT22;19986;48.190;16.366;2023-10-09T01:36:26;15.50;99.90
33645;DHT22;19986;48.190;16.366;2023-10-09T01:39:01;15.50;99.90
33645;DHT22;19986;48.190;16.366;2023-10-09T01:41:34;15.40;99.90
33645;DHT22;19986;48.190;16.366;2023-10-09T01:43:59;15.40;99.90
33645;DHT22;19986;48.190;16.366;2023-10-09T01:46:36;15.40;99.90
33645;DHT22;19986;48.190;16.366;2023-10-09T01:49:02;15.40;99.90
33645;DHT22;19986;48.190;16.366;2023-10-09T01:51:36;15.40;99.90
33645;DHT22;19986;48.190;16.366;2023-10-09T01:54:03;15.40;99.90
33645;DHT22;19986;48.190;16.366;2023-10-09T01:56:29;15.50;99.90
33645;DHT22;19986;48.190;16.366;2023-10-09T01:58:55;15.50;99.90
33645;DHT22;19986;48.190;16.366;2023-10-09T02:01:24;15.40;99.90
33645;DHT22;19986;48.190;16.366;2023-10-09T02:03:50;15.30;99.90
33645;DHT22;19986;48.190;16.366;2023-10-09T02:06:18;15.30;99.90
33645;DHT22;19986;48.190;16.366;2023-10-09T02:08:58;15.30;99.90
33645;DHT22;19986;48.190;16.366;2023-10-09T02:11:25;15.40;99.90
33645;DHT22;19986;48.190;16.366;2023-10-09T02:14:07;15.30;99.90
33645;DHT22;19986;48.190;16.366;2023-10-09T02:16:48;15.30;99.90
33645;DHT22;19986;48.190;16.366;2023-10-09T02:19:44;15.30;99.90
33645;DHT22;19986;48.190;16.366;2023-10-09T02:22:15;15.30;99.90
33645;DHT22;19986;48.190;16.366;2023-10-09T02:24:44;15.20;99.90
33645;DHT22;19986;48.190;16.366;2023-10-09T02:27:31;15.10;99.90
33645;DHT22;19986;48.190;16.366;2023-10-09T02:30:12;15.00;99.90
33645;DHT22;19986;48.190;16.366;2023-10-09T02:32:42;15.10;99.90
33645;DHT22;19986;48.190;16.366;2023-10-09T02:35:10;15.00;99.90
33645;DHT22;19986;48.190;16.366;2023-10-09T02:37:59;15.10;99.90
33645;DHT22;19986;48.190;16.366;2023-10-09T02:40:29;15.10;99.90
33645;DHT22;19986;48.190;16.366;2023-10-09T02:42:59;15.10;99.90
33645;DHT22;19986;48.190;16.366;2023-10-09T02:45:25;15.00;99.90
33645;DHT22;19986;48.190;16.366;2023-10-09T02:47:55;15.00;99.90
33645;DHT22;19986;48.190;16.366;2023-10-09T02:50:21;15.00;99.90
33645;DHT22;19986;48.190;16.366;2023-10-09T02:52:48;14.90;99.90
33645;DHT22;19986;48.190;16.366;2023-10-09T02:55:22;14.90;99.90
33645;DHT22;19986;48.190;16.366;2023-10-09T02:57:55;14.90;99.90
33645;DHT22;19986;48.190;16.366;2023-10-09T03:00:33;14.80;99.90
33645;DHT22;19986;48.190;16.366;2023-10-09T03:03:03;14.80;99.90
33645;DHT22;19986;48.190;16.366;2023-10-09T03:05:32;14.90;99.90
33645;DHT22;19986;48.190;16.366;2023-10-09T03:07:58;14.90;99.90
33645;DHT22;19986;48.190;16.366;2023-10-09T03:10:25;14.80;99.90
33645;DHT22;19986;48.190;16.366;2023-10-09T03:12:52;14.80;99.90
33645;DHT22;19986;48.190;16.366;2023-10-09T03:15:21;14.80;99.90
33645;DHT22;19986;48.190;16.366;2023-10-09T03:17:48;14.80;99.90
33645;DHT22;19986;48.190;16.366;2023-10-09T03:20:15;14.90;99.90
33645;DHT22;19986;48.190;16.366;2023-10-09T03:22:44;14.90;99.90
33645;DHT22;19986;48.190;16.366;2023-10-09T03:25:14;14.80;99.90
33645;DHT22;19986;48.190;16.366;2023-10-09T03:27:43;14.80;99.90
33645;DHT22;19986;48.190;16.366;2023-10-09T03:30:16;14.90;99.90
33645;DHT22;19986;48.190;16.366;2023-10-09T03:32:49;15.00;99.90
33645;DHT22;19986;48.190;16.366;2023-10-09T03:35:18;15.00;99.90
33645;DHT22;19986;48.190;16.366;2023-10-09T03:37:57;15.00;99.90
33645;DHT22;19986;48.190;16.366;2023-10-09T03:40:28;14.90;99.90
33645;DHT22;19986;48.190;16.366;2023-10-09T03:42:53;14.90;99.90
33645;DHT22;19986;48.190;16.366;2023-10-09T03:45:20;14.80;99.90
33645;DHT22;19986;48.190;16.366;2023-10-09T03:47:53;14.80;99.90
33645;DHT22;19986;48.190;16.366;2023-10-09T03:50:42;14.80;99.90
33645;DHT22;19986;48.190;16.366;2023-10-09T03:53:09;14.90;99.90
33645;DHT22;19986;48.190;16.366;2023-10-09T03:55:37;14.90;99.90
33645;DHT22;19986;48.190;16.366;2023-10-09T03:58:07;15.00;99.90
33645;DHT22;19986;48.190;16.366;2023-10-09T04:00:37;15.00;99.90
33645;DHT22;19986;48.190;16.366;2023-10-09T04:03:15;15.00;99.90
33645;DHT22;19986;48.190;16.366;2023-10-09T04:05:41;14.90;99.90
33645;DHT22;19986;48.190;16.366;2023-10-09T04:08:12;14.90;99.90
33645;DHT22;19986;48.190;16.366;2023-10-09T04:10:54;14.90;99.90
33645;DHT22;19986;48.190;16.366;2023-10-09T04:13:27;14.90;99.90
33645;DHT22;19986;48.190;16.366;2023-10-09T04:16:00;14.90;99.90
33645;DHT22;19986;48.190;16.366;2023-10-09T04:18:34;14.90;99.90
33645;DHT22;19986;48.190;16.366;2023-10-09T04:21:05;14.70;99.90
33645;DHT22;19986;48.190;16.366;2023-10-09T04:24:05;14.60;99.90
33645;DHT22;19986;48.190;16.366;2023-10-09T04:26:50;14.50;99.90
33645;DHT22;19986;48.190;16.366;2023-10-09T04:29:22;14.50;99.90
33645;DHT22;19986;48.190;16.366;2023-10-09T04:32:04;14.50;99.90
33645;DHT22;19986;48.190;16.366;2023-10-09T04:34:34;14.40;99.90
33645;DHT22;19986;48.190;16.366;2023-10-09T04:37:14;14.30;99.90
33645;DHT22;19986;48.190;16.366;2023-10-09T04:39:43;14.30;99.90
33645;DHT22;19986;48.190;16.366;2023-10-09T04:42:15;14.30;99.90
33645;DHT22;19986;48.190;16.366;2023-10-09T04:44:46;14.30;99.90
33645;DHT22;19986;48.190;16.366;2023-10-09T04:47:35;14.40;99.90
33645;DHT22;19986;48.190;16.366;2023-10-09T04:50:08;14.30;99.90
33645;DHT22;19986;48.190;16.366;2023-10-09T04:53:03;14.30;99.90
33645;DHT22;19986;48.190;16.366;2023-10-09T04:55:44;14.20;99.90
33645;DHT22;19986;48.190;16.366;2023-10-09T04:58:21;14.30;99.90
33645;DHT22;19986;48.190;16.366;2023-10-09T05:00:51;14.30;99.90
33645;DHT22;19986;48.190;16.366;2023-10-09T05:03:23;14.30;99.90
33645;DHT22;19986;48.190;16.366;2023-10-09T05:06:12;14.20;99.90
33645;DHT22;19986;48.190;16.366;2023-10-09T05:09:07;14.20;99.90
33645;DHT22;19986;48.190;16.366;2023-10-09T05:11:39;14.20;99.90
33645;DHT22;19986;48.190;16.366;2023-10-09T05:14:17;14.20;99.90
33645;DHT22;19986;48.190;16.366;2023-10-09T05:16:43;14.30;99.90
33645;DHT22;19986;48.190;16.366;2023-10-09T05:19:23;14.30;99.90
33645;DHT22;19986;48.190;16.366;2023-10-09T05:22:11;14.20;99.90
33645;DHT22;19986;48.190;16.366;2023-10-09T05:24:58;14.30;99.90
33645;DHT22;19986;48.190;16.366;2023-10-09T05:27:24;14.20;99.90
33645;DHT22;19986;48.190;16.366;2023-10-09T05:30:13;14.30;99.90
33645;DHT22;19986;48.190;16.366;2023-10-09T05:32:55;14.30;99.90
33645;DHT22;19986;48.190;16.366;2023-10-09T05:35:25;14.40;99.90
33645;DHT22;19986;48.190;16.366;2023-10-09T05:38:07;14.40;99.90
33645;DHT22;19986;48.190;16.366;2023-10-09T05:40:49;14.50;99.90
33645;DHT22;19986;48.190;16.366;2023-10-09T05:43:22;14.40;99.90
33645;DHT22;19986;48.190;16.366;2023-10-09T05:46:07;14.40;99.90
33645;DHT22;19986;48.190;16.366;2023-10-09T05:48:34;14.40;99.90
33645;DHT22;19986;48.190;16.366;2023-10-09T05:51:05;14.40;99.90
33645;DHT22;19986;48.190;16.366;2023-10-09T05:53:50;14.40;99.90
33645;DHT22;19986;48.190;16.366;2023-10-09T05:56:37;14.30;99.90
33645;DHT22;19986;48.190;16.366;2023-10-09T05:59:22;14.40;99.90
33645;DHT22;19986;48.190;16.366;2023-10-09T06:02:06;14.40;99.90
33645;DHT22;19986;48.190;16.366;2023-10-09T06:04:51;14.50;99.90
33645;DHT22;19986;48.190;16.366;2023-10-09T06:07:20;14.50;99.90
33645;DHT22;19986;48.190;16.366;2023-10-09T06:09:50;14.50;99.90
33645;DHT22;19986;48.190;16.366;2023-10-09T06:12:21;14.60;99.90
33645;DHT22;19986;48.190;16.366;2023-10-09T06:15:00;14.60;99.90
33645;DHT22;19986;48.190;16.366;2023-10-09T06:17:56;14.60;99.90
33645;DHT22;19986;48.190;16.366;2023-10-09T06:20:42;14.70;99.90
33645;DHT22;19986;48.190;16.366;2023-10-09T06:23:26;14.70;99.90
33645;DHT22;19986;48.190;16.366;2023-10-09T06:26:15;14.70;99.90
33645;DHT22;19986;48.190;16.366;2023-10-09T06:28:51;14.80;99.90
33645;DHT22;19986;48.190;16.366;2023-10-09T06:31:37;14.90;99.90
33645;DHT22;19986;48.190;16.366;2023-10-09T06:34:23;14.90;99.90
33645;DHT22;19986;48.190;16.366;2023-10-09T06:37:03;15.00;99.90
33645;DHT22;19986;48.190;16.366;2023-10-09T06:39:45;15.10;99.90
33645;DHT22;19986;48.190;16.366;2023-10-09T06:42:36;15.20;99.90
33645;DHT22;19986;48.190;16.366;2023-10-09T06:45:11;15.30;99.90
33645;DHT22;19986;48.190;16.366;2023-10-09T06:47:46;15.40;99.90
33645;DHT22;19986;48.190;16.366;2023-10-09T06:50:22;15.60;99.90
33645;DHT22;19986;48.190;16.366;2023-10-09T06:52:49;15.60;99.90
33645;DHT22;19986;48.190;16.366;2023-10-09T06:55:37;15.70;99.90
33645;DHT22;19986;48.190;16.366;2023-10-09T06:58:27;15.80;99.90
33645;DHT22;19986;48.190;16.366;2023-10-09T07:00:54;15.80;99.90
33645;DHT22;19986;48.190;16.366;2023-10-09T07:03:32;16.00;99.90
33645;DHT22;19986;48.190;16.366;2023-10-09T07:06:09;16.00;99.90
33645;DHT22;19986;48.190;16.366;2023-10-09T07:08:36;15.90;99.90
33645;DHT22;19986;48.190;16.366;2023-10-09T07:11:10;15.80;99.90
33645;DHT22;19986;48.190;16.366;2023-10-09T07:14:15;15.90;99.90
33645;DHT22;19986;48.190;16.366;2023-10-09T07:17:04;15.90;99.90
33645;DHT22;19986;48.190;16.366;2023-10-09T07:19:42;16.00;99.90
33645;DHT22;19986;48.190;16.366;2023-10-09T07:22:09;16.10;99.90
33645;DHT22;19986;48.190;16.366;2023-10-09T07:24:48;16.10;99.90
33645;DHT22;19986;48.190;16.366;2023-10-09T07:27:30;16.20;99.90
33645;DHT22;19986;48.190;16.366;2023-10-09T07:30:11;16.30;99.90
33645;DHT22;19986;48.190;16.366;2023-10-09T07:33:02;16.30;99.90
33645;DHT22;19986;48.190;16.366;2023-10-09T07:35:40;16.40;99.90
33645;DHT22;19986;48.190;16.366;2023-10-09T07:38:16;16.60;99.90
33645;DHT22;19986;48.190;16.366;2023-10-09T07:40:46;16.60;99.90
33645;DHT22;19986;48.190;16.366;2023-10-09T07:43:35;16.80;99.90
33645;DHT22;19986;48.190;16.366;2023-10-09T07:46:06;16.70;99.90
33645;DHT22;19986;48.190;16.366;2023-10-09T07:48:55;16.70;99.90
33645;DHT22;19986;48.190;16.366;2023-10-09T07:51:23;16.80;99.90
33645;DHT22;19986;48.190;16.366;2023-10-09T07:53:52;16.80;99.90
33645;DHT22;19986;48.190;16.366;2023-10-09T07:56:34;16.80;99.90
33645;DHT22;19986;48.190;16.366;2023-10-09T07:59:19;17.00;99.90
33645;DHT22;19986;48.190;16.366;2023-10-09T08:01:48;16.80;99.90
33645;DHT22;19986;48.190;16.366;2023-10-09T08:04:25;16.70;99.90
33645;DHT22;19986;48.190;16.366;2023-10-09T08:07:08;16.80;99.90
33645;DHT22;19986;48.190;16.366;2023-10-09T08:10:09;16.70;99.90
33645;DHT22;19986;48.190;16.366;2023-10-09T08:12:44;16.60;99.90
33645;DHT22;19986;48.190;16.366;2023-10-09T08:15:11;16.60;99.90
33645;DHT22;19986;48.190;16.366;2023-10-09T08:17:56;16.70;99.90
33645;DHT22;19986;48.190;16.366;2023-10-09T08:20:30;16.70;99.90
33645;DHT22;19986;48.190;16.366;2023-10-09T08:23:23;16.70;99.90
33645;DHT22;19986;48.190;16.366;2023-10-09T08:26:02;16.70;99.90
33645;DHT22;19986;48.190;16.366;2023-10-09T08:28:44;16.80;99.90
33645;DHT22;19986;48.190;16.366;2023-10-09T08:31:16;16.90;99.90
33645;DHT22;19986;48.190;16.366;2023-10-09T08:33:46;17.10;99.90
33645;DHT22;19986;48.190;16.366;2023-10-09T08:36:25;17.00;99.90
33645;DHT22;19986;48.190;16.366;2023-10-09T08:38:57;17.10;99.90
33645;DHT22;19986;48.190;16.366;2023-10-09T08:41:40;17.30;99.90
33645;DHT22;19986;48.190;16.366;2023-10-09T08:44:07;17.40;99.90
33645;DHT22;19986;48.190;16.366;2023-10-09T08:46:34;17.40;99.90
33645;DHT22;19986;48.190;16.366;2023-10-09T08:48:59;17.40;99.90
33645;DHT22;19986;48.190;16.366;2023-10-09T08:51:27;17.60;99.90
33645;DHT22;19986;48.190;16.366;2023-10-09T08:53:55;17.70;99.90
33645;DHT22;19986;48.190;16.366;2023-10-09T08:56:22;17.80;99.90
33645;DHT22;19986;48.190;16.366;2023-10-09T09:01:17;18.30;99.90
33645;DHT22;19986;48.190;16.366;2023-10-09T09:03:48;18.60;99.90
33645;DHT22;19986;48.190;16.366;2023-10-09T09:06:17;18.90;99.90
33645;DHT22;19986;48.190;16.366;2023-10-09T09:08:46;18.90;99.90
33645;DHT22;19986;48.190;16.366;2023-10-09T09:11:14;19.00;99.90
33645;DHT22;19986;48.190;16.366;2023-10-09T09:13:44;19.20;99.90
33645;DHT22;19986;48.190;16.366;2023-10-09T09:16:23;19.40;99.90
33645;DHT22;19986;48.190;16.366;2023-10-09T09:19:00;19.60;99.90
33645;DHT22;19986;48.190;16.366;2023-10-09T09:21:32;19.80;99.90
33645;DHT22;19986;48.190;16.366;2023-10-09T09:24:07;19.80;99.90
33645;DHT22;19986;48.190;16.366;2023-10-09T09:26:54;19.80;99.90
33645;DHT22;19986;48.190;16.366;2023-10-09T09:32:14;20.10;99.90
33645;DHT22;19986;48.190;16.366;2023-10-09T09:34:45;20.30;99.90
33645;DHT22;19986;48.190;16.366;2023-10-09T09:37:25;20.40;99.90
33645;DHT22;19986;48.190;16.366;2023-10-09T09:39:58;20.50;99.90
33645;DHT22;19986;48.190;16.366;2023-10-09T09:42:28;20.50;99.90
33645;DHT22;19986;48.190;16.366;2023-10-09T09:44:59;20.60;99.90
33645;DHT22;19986;48.190;16.366;2023-10-09T09:47:26;20.70;99.90
33645;DHT22;19986;48.190;16.366;2023-10-09T09:49:55;20.90;99.90
33645;DHT22;19986;48.190;16.366;2023-10-09T09:52:37;21.20;99.90
33645;DHT22;19986;48.190;16.366;2023-10-09T09:55:06;21.50;99.90
33645;DHT22;19986;48.190;16.366;2023-10-09T09:57:33;21.70;99.90
33645;DHT22;19986;48.190;16.366;2023-10-09T10:00:08;21.70;99.90
33645;DHT22;19986;48.190;16.366;2023-10-09T10:02:45;21.80;99.90
33645;DHT22;19986;48.190;16.366;2023-10-09T10:05:12;22.10;99.90
33645;DHT22;19986;48.190;16.366;2023-10-09T10:07:41;22.20;99.90
33645;DHT22;19986;48.190;16.366;2023-10-09T10:13:04;22.30;99.90
33645;DHT22;19986;48.190;16.366;2023-10-09T10:16:00;22.40;99.90
33645;DHT22;19986;48.190;16.366;2023-10-09T10:21:18;22.50;99.90
33645;DHT22;19986;48.190;16.366;2023-10-09T10:23:44;22.50;99.90
33645;DHT22;19986;48.190;16.366;2023-10-09T10:26:17;22.40;99.90
33645;DHT22;19986;48.190;16.366;2023-10-09T10:28:44;22.30;99.90
33645;DHT22;19986;48.190;16.366;2023-10-09T10:31:11;22.40;99.90
33645;DHT22;19986;48.190;16.366;2023-10-09T10:36:22;22.60;99.90
33645;DHT22;19986;48.190;16.366;2023-10-09T10:39:05;22.50;99.90
33645;DHT22;19986;48.190;16.366;2023-10-09T10:41:35;22.40;99.90
33645;DHT22;19986;48.190;16.366;2023-10-09T10:44:30;22.50;99.90
33645;DHT22;19986;48.190;16.366;2023-10-09T10:47:00;22.40;99.90
33645;DHT22;19986;48.190;16.366;2023-10-09T10:49:28;22.20;99.90
33645;DHT22;19986;48.190;16.366;2023-10-09T10:52:04;22.10;99.90
33645;DHT22;19986;48.190;16.366;2023-10-09T10:54:42;22.00;99.90
33645;DHT22;19986;48.190;16.366;2023-10-09T10:57:21;21.90;99.90
33645;DHT22;19986;48.190;16.366;2023-10-09T11:00:10;21.80;99.90
33645;DHT22;19986;48.190;16.366;2023-10-09T11:02:59;21.70;99.90
33645;DHT22;19986;48.190;16.366;2023-10-09T11:05:42;21.70;99.90
33645;DHT22;19986;48.190;16.366;2023-10-09T11:08:11;21.70;99.90
33645;DHT22;19986;48.190;16.366;2023-10-09T11:10:38;21.70;99.90
33645;DHT22;19986;48.190;16.366;2023-10-09T11:13:23;21.60;99.90
33645;DHT22;19986;48.190;16.366;2023-10-09T11:16:05;21.70;99.90
33645;DHT22;19986;48.190;16.366;2023-10-09T11:18:41;21.70;99.90
33645;DHT22;19986;48.190;16.366;2023-10-09T11:21:14;21.80;99.90
33645;DHT22;19986;48.190;16.366;2023-10-09T11:23:44;21.70;99.90
33645;DHT22;19986;48.190;16.366;2023-10-09T11:26:24;21.70;99.90
33645;DHT22;19986;48.190;16.366;2023-10-09T11:29:11;21.50;99.90
33645;DHT22;19986;48.190;16.366;2023-10-09T11:32:07;21.50;99.90
33645;DHT22;19986;48.190;16.366;2023-10-09T11:34:40;21.50;99.90
33645;DHT22;19986;48.190;16.366;2023-10-09T11:39:38;21.30;99.90
33645;DHT22;19986;48.190;16.366;2023-10-09T11:42:19;21.30;99.90
33645;DHT22;19986;48.190;16.366;2023-10-09T11:45:07;21.30;99.90
33645;DHT22;19986;48.190;16.366;2023-10-09T11:47:46;21.20;99.90
33645;DHT22;19986;48.190;16.366;2023-10-09T11:50:44;21.20;99.90
33645;DHT22;19986;48.190;16.366;2023-10-09T11:53:18;21.10;99.90
33645;DHT22;19986;48.190;16.366;2023-10-09T11:55:50;21.10;99.90
33645;DHT22;19986;48.190;16.366;2023-10-09T11:58:21;21.10;99.90
33645;DHT22;19986;48.190;16.366;2023-10-09T12:01:09;21.10;99.90
33645;DHT22;19986;48.190;16.366;2023-10-09T12:03:41;21.10;99.90
33645;DHT22;19986;48.190;16.366;2023-10-09T12:06:08;21.00;99.90
33645;DHT22;19986;48.190;16.366;2023-10-09T12:08:38;21.00;99.90
33645;DHT22;19986;48.190;16.366;2023-10-09T12:11:07;20.80;99.90
33645;DHT22;19986;48.190;16.366;2023-10-09T12:13:37;20.80;99.90
33645;DHT22;19986;48.190;16.366;2023-10-09T12:16:05;20.80;99.90
33645;DHT22;19986;48.190;16.366;2023-10-09T12:18:41;20.90;99.90
33645;DHT22;19986;48.190;16.366;2023-10-09T12:21:09;21.00;99.90
33645;DHT22;19986;48.190;16.366;2023-10-09T12:23:41;21.00;99.90
33645;DHT22;19986;48.190;16.366;2023-10-09T12:26:09;21.10;99.90
33645;DHT22;19986;48.190;16.366;2023-10-09T12:28:43;21.20;99.90
33645;DHT22;19986;48.190;16.366;2023-10-09T12:31:16;21.10;99.90
33645;DHT22;19986;48.190;16.366;2023-10-09T12:33:46;21.10;99.90
33645;DHT22;19986;48.190;16.366;2023-10-09T12:36:17;21.20;99.90
33645;DHT22;19986;48.190;16.366;2023-10-09T12:38:49;21.10;99.90
33645;DHT22;19986;48.190;16.366;2023-10-09T12:41:24;21.10;99.90
33645;DHT22;19986;48.190;16.366;2023-10-09T12:43:55;21.10;99.90
33645;DHT22;19986;48.190;16.366;2023-10-09T12:46:24;20.90;99.90
33645;DHT22;19986;48.190;16.366;2023-10-09T12:48:51;20.80;99.90
33645;DHT22;19986;48.190;16.366;2023-10-09T12:51:21;20.60;99.90
33645;DHT22;19986;48.190;16.366;2023-10-09T12:53:52;20.50;99.90
33645;DHT22;19986;48.190;16.366;2023-10-09T12:56:24;20.40;99.90
33645;DHT22;19986;48.190;16.366;2023-10-09T12:59:01;20.20;99.90
33645;DHT22;19986;48.190;16.366;2023-10-09T13:01:31;20.00;99.90
33645;DHT22;19986;48.190;16.366;2023-10-09T13:04:12;19.90;99.90
33645;DHT22;19986;48.190;16.366;2023-10-09T13:06:45;19.80;99.90
33645;DHT22;19986;48.190;16.366;2023-10-09T13:09:11;19.70;99.90
33645;DHT22;19986;48.190;16.366;2023-10-09T13:11:40;19.70;99.90
33645;DHT22;19986;48.190;16.366;2023-10-09T13:14:10;19.70;99.90
33645;DHT22;19986;48.190;16.366;2023-10-09T13:16:48;19.60;99.90
33645;DHT22;19986;48.190;16.366;2023-10-09T13:19:16;19.50;99.90
33645;DHT22;19986;48.190;16.366;2023-10-09T13:21:43;19.50;99.90
33645;DHT22;19986;48.190;16.366;2023-10-09T13:24:09;19.40;99.90
33645;DHT22;19986;48.190;16.366;2023-10-09T13:26:50;19.50;99.90
33645;DHT22;19986;48.190;16.366;2023-10-09T13:29:23;19.40;99.90
33645;DHT22;19986;48.190;16.366;2023-10-09T13:31:50;19.50;99.90
33645;DHT22;19986;48.190;16.366;2023-10-09T13:34:18;19.40;99.90
33645;DHT22;19986;48.190;16.366;2023-10-09T13:36:44;19.30;99.90
33645;DHT22;19986;48.190;16.366;2023-10-09T13:39:19;19.30;99.90
33645;DHT22;19986;48.190;16.366;2023-10-09T13:41:49;19.30;99.90
33645;DHT22;19986;48.190;16.366;2023-10-09T13:44:15;19.30;99.90
33645;DHT22;19986;48.190;16.366;2023-10-09T13:46:41;19.30;99.90
33645;DHT22;19986;48.190;16.366;2023-10-09T13:49:11;19.30;99.90
33645;DHT22;19986;48.190;16.366;2023-10-09T13:51:43;19.30;99.90
33645;DHT22;19986;48.190;16.366;2023-10-09T13:54:13;19.20;99.90
33645;DHT22;19986;48.190;16.366;2023-10-09T13:56:54;19.20;99.90
33645;DHT22;19986;48.190;16.366;2023-10-09T13:59:23;19.10;99.90
33645;DHT22;19986;48.190;16.366;2023-10-09T14:01:55;19.10;99.90
33645;DHT22;19986;48.190;16.366;2023-10-09T14:04:31;19.10;99.90
33645;DHT22;19986;48.190;16.366;2023-10-09T14:06:57;19.10;99.90
33645;DHT22;19986;48.190;16.366;2023-10-09T14:09:25;19.10;99.90
33645;DHT22;19986;48.190;16.366;2023-10-09T14:12:01;19.10;99.90
33645;DHT22;19986;48.190;16.366;2023-10-09T14:14:34;19.10;99.90
33645;DHT22;19986;48.190;16.366;2023-10-09T14:17:15;19.10;99.90
33645;DHT22;19986;48.190;16.366;2023-10-09T14:19:47;19.20;99.90
33645;DHT22;19986;48.190;16.366;2023-10-09T14:22:15;19.10;99.90
33645;DHT22;19986;48.190;16.366;2023-10-09T14:24:45;19.10;99.90
33645;DHT22;19986;48.190;16.366;2023-10-09T14:27:12;19.20;99.90
33645;DHT22;19986;48.190;16.366;2023-10-09T14:29:53;19.10;99.90
33645;DHT22;19986;48.190;16.366;2023-10-09T14:32:25;19.10;99.90
33645;DHT22;19986;48.190;16.366;2023-10-09T14:34:57;19.10;99.90
33645;DHT22;19986;48.190;16.366;2023-10-09T14:37:40;19.00;99.90
33645;DHT22;19986;48.190;16.366;2023-10-09T14:40:07;19.00;99.90
33645;DHT22;19986;48.190;16.366;2023-10-09T14:42:39;19.00;99.90
33645;DHT22;19986;48.190;16.366;2023-10-09T14:45:12;19.00;99.90
33645;DHT22;19986;48.190;16.366;2023-10-09T14:47:42;18.90;99.90
33645;DHT22;19986;48.190;16.366;2023-10-09T14:50:08;18.80;99.90
33645;DHT22;19986;48.190;16.366;2023-10-09T14:52:35;18.90;99.90
33645;DHT22;19986;48.190;16.366;2023-10-09T14:55:05;18.90;99.90
33645;DHT22;19986;48.190;16.366;2023-10-09T14:57:31;18.90;99.90
33645;DHT22;19986;48.190;16.366;2023-10-09T15:00:01;18.90;99.90
33645;DHT22;19986;48.190;16.366;2023-10-09T15:02:31;18.80;99.90
33645;DHT22;19986;48.190;16.366;2023-10-09T15:04:58;18.80;99.90
33645;DHT22;19986;48.190;16.366;2023-10-09T15:07:24;18.70;99.90
33645;DHT22;19986;48.190;16.366;2023-10-09T15:09:50;18.60;99.90
33645;DHT22;19986;48.190;16.366;2023-10-09T15:12:16;18.60;99.90
33645;DHT22;19986;48.190;16.366;2023-10-09T15:14:42;18.60;99.90
33645;DHT22;19986;48.190;16.366;2023-10-09T15:17:10;18.50;99.90
33645;DHT22;19986;48.190;16.366;2023-10-09T15:19:36;18.50;99.90
33645;DHT22;19986;48.190;16.366;2023-10-09T15:22:02;18.50;99.90
33645;DHT22;19986;48.190;16.366;2023-10-09T15:24:34;18.50;99.90
33645;DHT22;19986;48.190;16.366;2023-10-09T15:27:00;18.40;99.90
33645;DHT22;19986;48.190;16.366;2023-10-09T15:29:27;18.40;99.90
33645;DHT22;19986;48.190;16.366;2023-10-09T15:32:00;18.50;99.90
33645;DHT22;19986;48.190;16.366;2023-10-09T15:34:36;18.50;99.90
33645;DHT22;19986;48.190;16.366;2023-10-09T15:37:02;18.50;99.90
33645;DHT22;19986;48.190;16.366;2023-10-09T15:39:29;18.60;99.90
33645;DHT22;19986;48.190;16.366;2023-10-09T15:41:57;18.60;99.90
33645;DHT22;19986;48.190;16.366;2023-10-09T15:44:23;18.70;99.90
33645;DHT22;19986;48.190;16.366;2023-10-09T15:46:51;18.60;99.90
33645;DHT22;19986;48.190;16.366;2023-10-09T15:49:28;18.60;99.90
33645;DHT22;19986;48.190;16.366;2023-10-09T15:51:56;18.70;99.90
33645;DHT22;19986;48.190;16.366;2023-10-09T15:54:24;18.60;99.90
33645;DHT22;19986;48.190;16.366;2023-10-09T15:56:49;18.70;99.90
33645;DHT22;19986;48.190;16.366;2023-10-09T15:59:15;18.70;99.90
33645;DHT22;19986;48.190;16.366;2023-10-09T16:01:42;18.70;99.90
33645;DHT22;19986;48.190;16.366;2023-10-09T16:04:09;18.70;99.90
33645;DHT22;19986;48.190;16.366;2023-10-09T16:06:37;18.70;99.90
33645;DHT22;19986;48.190;16.366;2023-10-09T16:09:07;18.70;99.90
33645;DHT22;19986;48.190;16.366;2023-10-09T16:11:47;18.60;99.90
33645;DHT22;19986;48.190;16.366;2023-10-09T16:14:13;18.70;99.90
33645;DHT22;19986;48.190;16.366;2023-10-09T16:16:41;18.70;99.90